Timeline UpdatesTrip UpdatesNews PostsPvt PostsTravel TipsAdmin PostsConv PostsFollowed PostsChat RequestsBlog PostsPNR Posts

Disclaimer
Search
 
 
Wed Sep 17, 2014 15:02:28 ISTHomeTrainsΣChainsAtlasPNRForumGalleryNewsFAQTripsMembersLoginFeedback
No Recent News for this Train
Other Trains in the News **new
Latest...
★KR ♥ Lover ♥ Forever★ Entry# 707524 first 3 GS are of Milatry. Its full with police
Thu Mar 28, 2013 (10:36PM)
⇐ Return Journey: Train# 51154

51153/Mumbai-Bhusaval Passenger (UnReserved)

Time-Table HAS CHANGED.
Sep 03 (9:03PM)
Change Departure Station:
Change Arrival Station:
Post a Train Travel TipPost a Train Travel Tip **new
Post a Comment/Question/Picture/VideoPost a Comment/Question/Picture/Video
Pantry/Catering
✕ NO Pantry Car
✕ NO Catering
RSA - Rake Sharing
No RSA.
Rake/Coach Composition
Entry# 145371 Author: ® राहुल कुमार जैन ; Engine, SLR, GS, GS, GS, GS, GS, GS, GS, GS, GS, GS, GS, GS, SLR= 14 coach
Loco
CSTM-IGP : WCAM-3 KYN, IGP-BSL : WAP-4 BSL.
News    PNR    Forum    Time-Table    Availability    Fare Chart    Map    Arr/Dep History    Trips    Gallery    ΣChains    X/O    Timeline    
Travel Time: 12h 35m    48 halts    Distance: 443 km    Avg Speed: 35 km/hr
Type: Passenger
Zone: CR/Central
Departs @ 05:25
Platform# ???
SMTWTFS
Mumbai CST/CSTM 
Arrives @ 18:00
Platform# 1
SMTWTFS
Bhusaval Junction/BSL 

48 halts. 75 intermediate Stations between Mumbai CST and Bhusaval Junction

Show ALL intermediate Stations  Show Old Time-Table

#CodeStation NameX/OArrivesAvgDepartsAvgHaltPFDay#KmSpeedElevZoneAddress
1CSTM»Mumbai CST (18)»  -05:20 05:25---10.06510mCRMumbai 400001, Maharashtra
2DRMumbai Dadar Central (8)  05:25 05:33-05:30 05:35-5 2m418.6617mCRMumbai 400014, Maharashtra
3TNAThane (10)X  05:57 05:59-06:00 06:01-3 2m5132.95510mCRThane (West) 400602, Maharashtra
4KYNKalyan Junction (8)X  06:20 06:23-06:25-5 2m4153.11610mCRKalyan 421301, Maharashtra
5SHADShahad (2)X  06:37-06:38-1m1156.34512mCRUlhasnagar, Maharashtra
6ABYAmbivli (2)  06:42-06:43-1m1159.35822mCRAmbivli, Maharashtra
7TLATitwala (3)X  06:48-06:49-1m--164.14517mCRTitwala, Maharashtra
8KDVKhadavli (3)XO  06:59-07:00-1m--171.7823mCRKhadavli, Maharashtra
9VSDVasind (2)  08:00-08:01-1m--179.36032mCRVasind, Maharashtra
10ASOAsangaon (3)X  08:07-08:08-1m--185.35377mCRDist. Thane, Maharashtra
11ATGAtgaon (2)X  08:19-08:20-1m--195.159147mCRAtgaon, Maharashtra
12THSThansit  08:26-08:27-1m--1101.046184mCRNational Highway 3, Maharashtra
13KEKhardi (2)X  08:35-08:36-1m--1107.298232mCRKhardi, Maharashtra
14OMBOombermaliX  08:40-08:41-1m--1113.737248mCROombermali, Maharashtra
15KSRAKasara (4)X  08:52-08:53-1m11120.521290mCRDist. Thane 421602, Maharashtra
16IGPIgatpuri (4)X  09:35-09:40-5m11134.918589mCRIgatpuri 422403, Maharashtra
17GOGhoti (2)X  10:07-10:08-1m--1143.084581mCRGhoti, Maharashtra
18PIPadli (1)X  10:14-10:15-1m11151.385591mCRNational Highway 3, Maharashtra
19AVAsvali (2)X  10:21-10:23-2m--1159.893578mCRAsvali, Maharashtra
20LTLahavit (1)  10:31-10:32-1m11172.245587mCRWadhiware, Maharashtra
21DVLDevlali (3)  10:42-10:43-1m11179.8-561mCRDist. Nashik 422401, Maharashtra
22NKNasik Road (3)X  10:45-10:50-5m11185.632563mCRNashik 422101, Maharashtra
23ODHAOdha (2)  11:12-11:13-1m11197.253571mCRDist. Nashik, Maharashtra
24KWKhervadi (2)  11:21-11:22-1m11204.251553mCRKherwadi, Maharashtra
25KBSNKasbe Sukene (3)  11:30-11:31-1m--1210.945548mCRKasbe Sukene, Maharashtra
26NRNiphad (3)  11:39-11:40-1m11216.952550mCRNashik, Maharashtra
27UGNUgaon (2)X  11:48-11:49-1m11223.959568mCRUgaon, Maharashtra
28LSLasalgaon (3)O  11:59-12:00-1m--1233.856592mCRLasalgaon, Maharashtra
29SUMSummit (2)XO  12:13-12:14-1m11245.913632mCRSummit, Maharashtra
30MMRManmad Junction (6)  13:10-13:15-5m21258.338580mCRManmad 423104, Maharashtra
31PNVPanevadi (2)  13:24-13:25-1m--1264.066561mCRPanevadi, Maharashtra
32HSLHisvahal (2)  13:32-13:33-1m--1271.855540mCRHisvahal, Maharashtra
33PJNPanjhan (2)X  13:39-13:40-1m--1277.243514mCRPanjhan, Maharashtra
34NGNNandgaon (3)X  13:49-13:50-1m--1283.781476mCRNandgaon, Maharashtra
35PKEPimpar Khed (2)O  13:58-13:59-1m--1294.565462mCRPimpar Khed, Maharashtra
36NINaydongri (2)  14:08-14:09-1m--1304.382427mCRNaydongri, Maharashtra
37HPRHirapur (2)X  14:21 14:19-14:22 14:20-1m--1318.043373mCRHirapur, Maharashtra
38CSNChalisgaon Junction (3)X  14:30 14:31-14:35 14:33-5 2m--1325.870352mCRChalisgaon 424101, Maharashtra
39VGLVaghli (2)  14:43 14:41-14:44 14:42-1m--1335.297331mCRVaghli, Maharashtra
40KJKajgaon (3)X  14:49 14:48-14:51 14:49-2 1m--1344.968297mCRKajgaon, Maharashtra
41NGDNagardevla (2)X  14:57 14:55-14:58 14:56-1m--1351.872280mCRNagardevla, Maharashtra
42GAAGalan (2)X  15:05 15:03-15:06 15:04-1m--1360.263282mCRGalan, Maharashtra
43PCPachora Junction (4)X  15:17 15:14-15:18 15:16-1 2m--1370.789264mCRPachora 424201, Maharashtra
44PHQPardhande (2)X  15:23 15:21-15:24 15:22-1m--1378.163243mCRPardhande, Maharashtra
45MYJMaheji (2)X  15:31 15:29-15:32 15:30-1m--1385.579247mCRJalgaon, Maharashtra
46MWDMhasavad (3)  15:41 15:39-15:42 15:40-1m--1397.311220mCRMhasavad, Maharashtra
47SSShirsoli (2)O  16:33 16:29-16:34 16:30-1m--1406.647211mCRShirsoli, Maharashtra
48JLJalgaon Junction (4)X  16:45-16:50-5m31418.420213mCRJalgaon 425001, Maharashtra
49BDIBhadli (2)  17:24-17:25-1m--1429.922211mCRBhadli, Maharashtra
50BSL•Bhusaval Junction (8)•  18:00--11442.5-208mCRBhusaval 425201, Maharashtra
Scroll to Top
Scroll to Bottom